Time;durP1;ratioP1;P1;durP2;ratioP2;P2;SDS_P1;SDS_P2;PMS_P1;PMS_P2;Temp;Humidity;BMP_temperature;BMP_pressure;BME280_temperature;BME280_humidity;BME280_pressure;Samples;Min_cycle;Max_cycle;Signal;HPM_P1;HPM_P2
2023/05/05 00:02:17;;;;;;;;;;;;;;;;;;5090333;28;19932;-60
2023/05/05 00:04:43;;;;;;;;;;;;;;;;;;5081600;28;19931;-60
2023/05/05 00:07:09;;;;;;;;;;;;;;;;;;5091366;28;20307;-60
2023/05/05 00:09:35;;;;;;;;;;;;;;;;;;5089563;28;20011;-60
2023/05/05 00:12:01;;;;;;;;;;;;;;;;;;5073159;28;19955;-60
2023/05/05 00:14:26;;;;;;;;;;;;;;;;;;5080340;28;20380;-59
2023/05/05 00:16:52;;;;;;;;;;;;;;;;;;5094203;28;19962;-61
2023/05/05 00:19:18;;;;;;;;;;;;;;;;;;5092296;28;19920;-61
2023/05/05 00:21:44;;;;;;;;;;;;;;;;;;5090587;28;20346;-61
2023/05/05 00:24:10;;;;;;;;;;;;;;;;;;5088057;28;19920;-60
2023/05/05 00:26:36;;;;;;;;;;;;;;;;;;5072931;28;20274;-60
2023/05/05 00:29:02;;;;;;;;;;;;;;;;;;5090865;28;19973;-61
2023/05/05 00:31:28;;;;;;;;;;;;;;;;;;5098519;28;19920;-61
2023/05/05 00:33:54;;;;;;;;;;;;;;;;;;5085030;28;19951;-60
2023/05/05 00:36:20;;;;;;;;;;;;;;;;;;5090542;28;19927;-60
2023/05/05 00:38:46;;;;;;;;;;;;;;;;;;5090969;28;20442;-60
2023/05/05 00:41:12;;;;;;;;;;;;;;;;;;5089472;28;19928;-60
2023/05/05 00:43:38;;;;;;;;;;;;;;;;;;5073604;28;19994;-60
2023/05/05 00:46:04;;;;;;;;;;;;;;;;;;5087906;28;19927;-60
2023/05/05 00:48:30;;;;;;;;;;;;;;;;;;5092124;28;19927;-61
2023/05/05 00:50:56;;;;;;;;;;;;;;;;;;5093114;28;20374;-60
2023/05/05 00:53:22;;;;;;;;;;;;;;;;;;5094439;28;19924;-60
2023/05/05 00:55:47;;;;;;;;;;;;;;;;;;5087294;28;19924;-60
2023/05/05 00:58:13;;;;;;;;;;;;;;;;;;5087578;28;20001;-60
2023/05/05 01:00:39;;;;;;;;;;;;;;;;;;5090616;28;19920;-60
2023/05/05 01:03:05;;;;;;;;;;;;;;;;;;5091601;28;19955;-60
2023/05/05 01:05:31;;;;;;;;;;;;;;;;;;5090071;28;19921;-61
2023/05/05 01:07:57;;;;;;;;;;;;;;;;;;5082611;28;19928;-61
2023/05/05 01:10:23;;;;;;;;;;;;;;;;;;5075668;28;19920;-60
2023/05/05 01:12:49;;;;;;;;;;;;;;;;;;5087493;28;19985;-61
2023/05/05 01:15:15;;;;;;;;;;;;;;;;;;5088491;28;19920;-60
2023/05/05 01:17:41;;;;;;;;;;;;;;;;;;5079773;28;19921;-60
2023/05/05 01:20:07;;;;;;;;;;;;;;;;;;5076996;28;19959;-60
2023/05/05 01:22:33;;;;;;;;;;;;;;;;;;5075367;28;19928;-60
2023/05/05 01:24:59;;;;;;;;;;;;;;;;;;5092384;28;20258;-60
2023/05/05 01:27:26;;;;;;;;;;;;;;;;;;5078457;28;20014;-60
2023/05/05 01:29:52;;;;;;;;;;;;;;;;;;5092331;28;19924;-61
2023/05/05 01:32:17;;;;;;;;;;;;;;;;;;5089999;28;20376;-60
2023/05/05 01:34:43;;;;;;;;;;;;;;;;;;5094300;28;20047;-61
2023/05/05 01:37:09;;;;;;;;;;;;;;;;;;5092931;28;19990;-61
2023/05/05 01:39:35;;;;;;;;;;;;;;;;;;5086226;28;19964;-61
2023/05/05 01:42:01;;;;;;;;;;;;;;;;;;5087041;28;19971;-61
2023/05/05 01:44:27;;;;;;;;;;;;;;;;;;5090789;28;20334;-61
2023/05/05 01:46:53;;;;;;;;;;;;;;;;;;5089612;28;20732;-61
2023/05/05 01:49:19;;;;;;;;;;;;;;;;;;5093018;28;19920;-61
2023/05/05 01:51:45;;;;;;;;;;;;;;;;;;5083912;28;19927;-61
2023/05/05 01:54:11;;;;;;;;;;;;;;;;;;5086907;28;19920;-61
2023/05/05 01:56:37;;;;;;;;;;;;;;;;;;5093667;28;19968;-60
2023/05/05 01:59:03;;;;;;;;;;;;;;;;;;5084994;28;19920;-60
2023/05/05 02:01:29;;;;;;;;;;;;;;;;;;5084100;28;20005;-61
2023/05/05 02:03:58;;;;;;;;;;;;;;;;;;5089754;28;19927;-60
2023/05/05 02:06:24;;;;;;;;;;;;;;;;;;5091974;28;19928;-61
2023/05/05 02:08:50;;;;;;;;;;;;;;;;;;5088753;28;20285;-61
2023/05/05 02:11:16;;;;;;;;;;;;;;;;;;5090911;28;20417;-61
2023/05/05 02:13:41;;;;;;;;;;;;;;;;;;5087732;28;19924;-61
2023/05/05 02:16:07;;;;;;;;;;;;;;;;;;5081686;28;19923;-61
2023/05/05 02:18:34;;;;;;;;;;;;;;;;;;5087557;28;19920;-61
2023/05/05 02:21:01;;;;;;;;;;;;;;;;;;5087184;28;19970;-61
2023/05/05 02:23:26;;;;;;;;;;;;;;;;;;5088586;28;19931;-61
2023/05/05 02:25:52;;;;;;;;;;;;;;;;;;5061891;28;19920;-61
2023/05/05 02:28:18;;;;;;;;;;;;;;;;;;5091786;28;20472;-61
2023/05/05 02:30:44;;;;;;;;;;;;;;;;;;5090916;28;20448;-60
2023/05/05 02:33:10;;;;;;;;;;;;;;;;;;5092846;28;19924;-60
2023/05/05 02:35:36;;;;;;;;;;;;;;;;;;5090558;28;20545;-60
2023/05/05 02:38:04;;;;;;;;;;;;;;;;;;5078276;28;19924;-60
2023/05/05 02:40:30;;;;;;;;;;;;;;;;;;5090408;28;19972;-60
2023/05/05 02:42:56;;;;;;;;;;;;;;;;;;5079634;28;20387;-61
2023/05/05 02:45:21;;;;;;;;;;;;;;;;;;5090661;28;19965;-60
2023/05/05 02:47:47;;;;;;;;;;;;;;;;;;5092295;28;19969;-60
2023/05/05 02:50:14;;;;;;;;;;;;;;;;;;5089945;28;19920;-61
2023/05/05 02:52:40;;;;;;;;;;;;;;;;;;5084525;28;19924;-60
2023/05/05 02:55:06;;;;;;;;;;;;;;;;;;5075027;28;19931;-60
2023/05/05 02:57:32;;;;;;;;;;;;;;;;;;5087012;28;21604;-61
2023/05/05 02:59:58;;;;;;;;;;;;;;;;;;5089195;28;19924;-60
2023/05/05 03:02:23;;;;;;;;;;;;;;;;;;5090286;28;19935;-60
2023/05/05 03:04:49;;;;;;;;;;;;;;;;;;5091024;28;20015;-60
2023/05/05 03:07:15;;;;;;;;;;;;;;;;;;5088016;28;19928;-60
2023/05/05 03:09:41;;;;;;;;;;;;;;;;;;5082253;28;19999;-60
2023/05/05 03:12:07;;;;;;;;;;;;;;;;;;5086602;28;20143;-60
2023/05/05 03:14:33;;;;;;;;;;;;;;;;;;5090299;28;19920;-60
2023/05/05 03:16:59;;;;;;;;;;;;;;;;;;5091371;28;20449;-60
2023/05/05 03:19:25;;;;;;;;;;;;;;;;;;5090199;28;20285;-61
2023/05/05 03:21:51;;;;;;;;;;;;;;;;;;5091072;28;19927;-60
2023/05/05 03:24:17;;;;;;;;;;;;;;;;;;5091146;28;19927;-60
2023/05/05 03:26:43;;;;;;;;;;;;;;;;;;5091926;28;19920;-61
2023/05/05 03:29:09;;;;;;;;;;;;;;;;;;5084183;28;20007;-61
2023/05/05 03:31:35;;;;;;;;;;;;;;;;;;5093811;28;20421;-61
2023/05/05 03:34:01;;;;;;;;;;;;;;;;;;5075787;28;20011;-61
2023/05/05 03:36:26;;;;;;;;;;;;;;;;;;5090968;28;19924;-60
2023/05/05 03:38:52;;;;;;;;;;;;;;;;;;5083318;28;19929;-62
2023/05/05 03:41:18;;;;;;;;;;;;;;;;;;5082345;28;20516;-61
2023/05/05 03:43:44;;;;;;;;;;;;;;;;;;5082325;28;19920;-60
2023/05/05 03:46:10;;;;;;;;;;;;;;;;;;5082912;28;19990;-60
2023/05/05 03:48:36;;;;;;;;;;;;;;;;;;5088038;28;19929;-60
2023/05/05 03:51:02;;;;;;;;;;;;;;;;;;5073864;22;20011;-63
2023/05/05 03:53:28;;;;;;;;;;;;;;;;;;5068330;28;20027;-63
2023/05/05 03:55:54;;;;;;;;;;;;;;;;;;5065335;28;19931;-63
2023/05/05 03:58:20;;;;;;;;;;;;;;;;;;5059081;28;19931;-63
2023/05/05 04:00:46;;;;;;;;;;;;;;;;;;5061942;28;20364;-63
2023/05/05 04:03:12;;;;;;;;;;;;;;;;;;5043191;28;19924;-63
2023/05/05 04:05:38;;;;;;;;;;;;;;;;;;5071983;28;19920;-63
2023/05/05 04:08:04;;;;;;;;;;;;;;;;;;5061145;28;19924;-63
2023/05/05 04:10:29;;;;;;;;;;;;;;;;;;5062219;28;19943;-63
2023/05/05 04:12:55;;;;;;;;;;;;;;;;;;5065834;28;19921;-63
2023/05/05 04:15:21;;;;;;;;;;;;;;;;;;5050386;28;19991;-63
2023/05/05 04:17:47;;;;;;;;;;;;;;;;;;5073400;28;19929;-63
2023/05/05 04:20:13;;;;;;;;;;;;;;;;;;5072349;28;20501;-63
2023/05/05 04:22:39;;;;;;;;;;;;;;;;;;5072842;28;19925;-63
2023/05/05 04:25:05;;;;;;;;;;;;;;;;;;5075885;28;20688;-62
2023/05/05 04:27:31;;;;;;;;;;;;;;;;;;5062067;28;19963;-63
2023/05/05 04:29:57;;;;;;;;;;;;;;;;;;5067593;28;20617;-64
2023/05/05 04:32:23;;;;;;;;;;;;;;;;;;5068025;28;19973;-63
2023/05/05 04:34:49;;;;;;;;;;;;;;;;;;5066619;28;19928;-63
2023/05/05 04:37:15;;;;;;;;;;;;;;;;;;5068029;28;20284;-63
2023/05/05 04:39:41;;;;;;;;;;;;;;;;;;5073181;28;19927;-63
2023/05/05 04:42:07;;;;;;;;;;;;;;;;;;5072492;28;19947;-63
2023/05/05 04:44:33;;;;;;;;;;;;;;;;;;5072322;28;19978;-63
2023/05/05 04:46:59;;;;;;;;;;;;;;;;;;5068505;28;20406;-63
2023/05/05 04:49:25;;;;;;;;;;;;;;;;;;5053458;28;19920;-63
2023/05/05 04:51:51;;;;;;;;;;;;;;;;;;5070280;28;19934;-63
2023/05/05 04:54:17;;;;;;;;;;;;;;;;;;5070025;28;20358;-63
2023/05/05 04:56:43;;;;;;;;;;;;;;;;;;5073566;28;19920;-62
2023/05/05 04:59:09;;;;;;;;;;;;;;;;;;5052804;28;19920;-62
2023/05/05 05:01:35;;;;;;;;;;;;;;;;;;5071541;28;20024;-62
2023/05/05 05:04:01;;;;;;;;;;;;;;;;;;5069539;28;19924;-62
2023/05/05 05:06:28;;;;;;;;;;;;;;;;;;5071610;28;19924;-63
2023/05/05 05:08:54;;;;;;;;;;;;;;;;;;5072521;28;19964;-63
2023/05/05 05:11:20;;;;;;;;;;;;;;;;;;5070948;28;19959;-63
2023/05/05 05:13:46;;;;;;;;;;;;;;;;;;5073488;28;19924;-63
2023/05/05 05:16:12;;;;;;;;;;;;;;;;;;5074818;28;19927;-63
2023/05/05 05:18:38;;;;;;;;;;;;;;;;;;5067029;28;20313;-63
2023/05/05 05:21:04;;;;;;;;;;;;;;;;;;5072629;28;19925;-61
2023/05/05 05:23:30;;;;;;;;;;;;;;;;;;5070372;28;19955;-62
2023/05/05 05:25:56;;;;;;;;;;;;;;;;;;5062250;28;20012;-62
2023/05/05 05:28:22;;;;;;;;;;;;;;;;;;5069435;28;19955;-62
2023/05/05 05:30:48;;;;;;;;;;;;;;;;;;5075455;28;19928;-62
2023/05/05 05:33:14;;;;;;;;;;;;;;;;;;5073707;28;20382;-62
2023/05/05 05:35:39;;;;;;;;;;;;;;;;;;5073838;28;20006;-62
2023/05/05 05:38:05;;;;;;;;;;;;;;;;;;5054962;28;19927;-63
2023/05/05 05:40:31;;;;;;;;;;;;;;;;;;5035638;28;19921;-62
2023/05/05 05:42:57;;;;;;;;;;;;;;;;;;5055024;28;19976;-63
2023/05/05 05:45:23;;;;;;;;;;;;;;;;;;5078825;28;19929;-63
2023/05/05 05:47:49;;;;;;;;;;;;;;;;;;5073067;28;20327;-62
2023/05/05 05:50:15;;;;;;;;;;;;;;;;;;5055283;28;19946;-63
2023/05/05 05:52:41;;;;;;;;;;;;;;;;;;5073679;28;20039;-63
2023/05/05 05:55:07;;;;;;;;;;;;;;;;;;5054423;28;19925;-63
2023/05/05 05:57:33;;;;;;;;;;;;;;;;;;5053503;28;19920;-63
2023/05/05 05:59:59;;;;;;;;;;;;;;;;;;5053193;28;19928;-63
2023/05/05 06:02:26;;;;;;;;;;;;;;;;;;5071901;28;19928;-66
2023/05/05 06:04:51;;;;;;;;;;;;;;;;;;5055294;28;19967;-63
2023/05/05 06:07:17;;;;;;;;;;;;;;;;;;5070762;28;20405;-63
2023/05/05 06:09:43;;;;;;;;;;;;;;;;;;5073343;28;19931;-63
2023/05/05 06:12:09;;;;;;;;;;;;;;;;;;5074408;28;19928;-62
2023/05/05 06:14:35;;;;;;;;;;;;;;;;;;5091033;28;20078;-62
2023/05/05 06:17:01;;;;;;;;;;;;;;;;;;5082576;28;19931;-63
2023/05/05 06:19:28;;;;;;;;;;;;;;;;;;5055039;28;20415;-63
2023/05/05 06:21:54;;;;;;;;;;;;;;;;;;5060126;28;20416;-63
2023/05/05 06:24:20;;;;;;;;;;;;;;;;;;5061198;28;19924;-63
2023/05/05 06:26:46;;;;;;;;;;;;;;;;;;5053160;28;19931;-63
2023/05/05 06:29:12;;;;;;;;;;;;;;;;;;5055024;28;19921;-63
2023/05/05 06:31:37;;;;;;;;;;;;;;;;;;5071867;28;19924;-64
2023/05/05 06:34:03;;;;;;;;;;;;;;;;;;5084752;28;20634;-62
2023/05/05 06:36:31;;;;;;;;;;;;;;;;;;5072787;28;19970;-63
2023/05/05 06:38:56;;;;;;;;;;;;;;;;;;5070880;28;19924;-63
2023/05/05 06:41:22;;;;;;;;;;;;;;;;;;5052021;28;20444;-63
2023/05/05 06:43:48;;;;;;;;;;;;;;;;;;5051421;28;19921;-62
2023/05/05 06:46:14;;;;;;;;;;;;;;;;;;5067847;28;20658;-62
2023/05/05 06:48:40;;;;;;;;;;;;;;;;;;5052362;28;19928;-62
2023/05/05 06:51:06;;;;;;;;;;;;;;;;;;5066233;28;19925;-63
2023/05/05 06:53:32;;;;;;;;;;;;;;;;;;5054181;28;19928;-63
2023/05/05 06:55:58;;;;;;;;;;;;;;;;;;5059380;28;19925;-62
2023/05/05 06:58:24;;;;;;;;;;;;;;;;;;5071483;28;19925;-62
2023/05/05 07:00:50;;;;;;;;;;;;;;;;;;5071920;28;19924;-63
2023/05/05 07:03:15;;;;;;;;;;;;;;;;;;5052237;28;19946;-64
2023/05/05 07:05:42;;;;;;;;;;;;;;;;;;5055055;28;19928;-65
2023/05/05 07:08:08;;;;;;;;;;;;;;;;;;5053495;28;19974;-64
2023/05/05 07:10:33;;;;;;;;;;;;;;;;;;5071471;28;20512;-64
2023/05/05 07:12:59;;;;;;;;;;;;;;;;;;5042646;28;20306;-64
2023/05/05 07:15:25;;;;;;;;;;;;;;;;;;5047572;28;19954;-63
2023/05/05 07:17:51;;;;;;;;;;;;;;;;;;5064816;28;19921;-64
2023/05/05 07:20:17;;;;;;;;;;;;;;;;;;5068395;28;19975;-64
2023/05/05 07:22:43;;;;;;;;;;;;;;;;;;5065504;28;19951;-64
2023/05/05 07:25:09;;;;;;;;;;;;;;;;;;5071859;28;19993;-64
2023/05/05 07:27:36;;;;;;;;;;;;;;;;;;5071984;28;19924;-64
2023/05/05 07:30:02;;;;;;;;;;;;;;;;;;5069120;28;19927;-63
2023/05/05 07:32:27;;;;;;;;;;;;;;;;;;5069878;28;19925;-64
2023/05/05 07:34:53;;;;;;;;;;;;;;;;;;5052504;28;19998;-64
2023/05/05 07:37:19;;;;;;;;;;;;;;;;;;5069694;28;19924;-64
2023/05/05 07:39:48;;;;;;;;;;;;;;;;;;5084936;28;19921;-64
2023/05/05 07:42:14;;;;;;;;;;;;;;;;;;5055411;28;20278;-63
2023/05/05 07:44:40;;;;;;;;;;;;;;;;;;5066377;28;19928;-64
2023/05/05 07:47:06;;;;;;;;;;;;;;;;;;5048861;28;19924;-64
2023/05/05 07:49:32;;;;;;;;;;;;;;;;;;5050979;28;20761;-63
2023/05/05 07:51:58;;;;;;;;;;;;;;;;;;5067888;28;19974;-64
2023/05/05 07:54:24;;;;;;;;;;;;;;;;;;5074063;28;20521;-63
2023/05/05 07:56:50;;;;;;;;;;;;;;;;;;5072230;28;19932;-65
2023/05/05 07:59:15;;;;;;;;;;;;;;;;;;5069340;28;20522;-64
2023/05/05 08:01:41;;;;;;;;;;;;;;;;;;5054902;28;19931;-64
2023/05/05 08:04:07;;;;;;;;;;;;;;;;;;5072789;28;19931;-64
2023/05/05 08:06:33;;;;;;;;;;;;;;;;;;5070919;28;19924;-64
2023/05/05 08:08:59;;;;;;;;;;;;;;;;;;5068993;28;19924;-63
2023/05/05 08:11:25;;;;;;;;;;;;;;;;;;5074885;28;19943;-63
2023/05/05 08:13:51;;;;;;;;;;;;;;;;;;5074339;28;20445;-63
2023/05/05 08:16:17;;;;;;;;;;;;;;;;;;5072949;28;20324;-64
2023/05/05 08:18:43;;;;;;;;;;;;;;;;;;5054587;28;19920;-64
2023/05/05 08:21:09;;;;;;;;;;;;;;;;;;5072621;28;19927;-64
2023/05/05 08:23:34;;;;;;;;;;;;;;;;;;5071237;28;20636;-64
2023/05/05 08:26:01;;;;;;;;;;;;;;;;;;5074010;28;19978;-64
2023/05/05 08:28:27;;;;;;;;;;;;;;;;;;5095582;28;20322;-64
2023/05/05 08:30:52;;;;;;;;;;;;;;;;;;5075740;28;20005;-64
2023/05/05 08:33:18;;;;;;;;;;;;;;;;;;5055020;28;20382;-63
2023/05/05 08:35:44;;;;;;;;;;;;;;;;;;5055246;28;19982;-63
2023/05/05 08:38:10;;;;;;;;;;;;;;;;;;5072676;28;19963;-64
2023/05/05 08:40:36;;;;;;;;;;;;;;;;;;5073225;28;19920;-64
2023/05/05 08:43:02;;;;;;;;;;;;;;;;;;5073539;28;20314;-65
2023/05/05 08:45:28;;;;;;;;;;;;;;;;;;5089330;28;19974;-64
2023/05/05 08:47:54;;;;;;;;;;;;;;;;;;5053932;28;19952;-64
2023/05/05 08:50:20;;;;;;;;;;;;;;;;;;5061493;28;19928;-64
2023/05/05 08:52:46;;;;;;;;;;;;;;;;;;5063022;28;19933;-64
2023/05/05 08:55:12;;;;;;;;;;;;;;;;;;5035595;28;20389;-64
2023/05/05 08:57:37;;;;;;;;;;;;;;;;;;5064612;28;19932;-64
2023/05/05 09:00:03;;;;;;;;;;;;;;;;;;5070042;28;19920;-63
2023/05/05 09:02:29;;;;;;;;;;;;;;;;;;5070813;28;20385;-64
2023/05/05 09:04:55;;;;;;;;;;;;;;;;;;5078898;28;19975;-65
2023/05/05 09:07:21;;;;;;;;;;;;;;;;;;5076633;28;19921;-65
2023/05/05 09:09:47;;;;;;;;;;;;;;;;;;5071358;28;19979;-64
2023/05/05 09:12:14;;;;;;;;;;;;;;;;;;5069454;28;19978;-64
2023/05/05 09:14:40;;;;;;;;;;;;;;;;;;5082729;28;19921;-65
2023/05/05 09:17:06;;;;;;;;;;;;;;;;;;5069812;28;19998;-64
2023/05/05 09:19:32;;;;;;;;;;;;;;;;;;5068365;28;20270;-64
2023/05/05 09:21:58;;;;;;;;;;;;;;;;;;5056073;28;19928;-64
2023/05/05 09:24:24;;;;;;;;;;;;;;;;;;5072135;28;19930;-64
2023/05/05 09:26:50;;;;;;;;;;;;;;;;;;5071143;28;19929;-64
2023/05/05 09:29:16;;;;;;;;;;;;;;;;;;5065811;28;19948;-64
2023/05/05 09:31:42;;;;;;;;;;;;;;;;;;5079504;28;19920;-64
2023/05/05 09:34:07;;;;;;;;;;;;;;;;;;5062035;28;20247;-63
2023/05/05 09:36:33;;;;;;;;;;;;;;;;;;5080827;28;19920;-64
2023/05/05 09:38:59;;;;;;;;;;;;;;;;;;5070544;28;19925;-64
2023/05/05 09:41:25;;;;;;;;;;;;;;;;;;5051048;28;19932;-64
2023/05/05 09:43:51;;;;;;;;;;;;;;;;;;5073524;28;19928;-65
2023/05/05 09:46:17;;;;;;;;;;;;;;;;;;5053625;28;19932;-63
2023/05/05 09:48:43;;;;;;;;;;;;;;;;;;5052103;28;19925;-64
2023/05/05 09:51:09;;;;;;;;;;;;;;;;;;5055216;28;19955;-64
2023/05/05 09:53:35;;;;;;;;;;;;;;;;;;5073634;28;19924;-64
2023/05/05 09:56:01;;;;;;;;;;;;;;;;;;5043251;28;20418;-64
2023/05/05 09:58:27;;;;;;;;;;;;;;;;;;5072908;28;19925;-64
2023/05/05 10:00:53;;;;;;;;;;;;;;;;;;5043930;28;19947;-65
2023/05/05 10:03:19;;;;;;;;;;;;;;;;;;5072016;28;19931;-64
2023/05/05 10:05:44;;;;;;;;;;;;;;;;;;5072870;28;20290;-64
2023/05/05 10:08:11;;;;;;;;;;;;;;;;;;5069267;28;19925;-64
2023/05/05 10:10:37;;;;;;;;;;;;;;;;;;5069137;28;19928;-64
2023/05/05 10:13:03;;;;;;;;;;;;;;;;;;5070040;28;19925;-63
2023/05/05 10:15:29;;;;;;;;;;;;;;;;;;5061991;28;19924;-64
2023/05/05 10:17:55;;;;;;;;;;;;;;;;;;5041336;28;19920;-64
2023/05/05 10:20:21;;;;;;;;;;;;;;;;;;5067968;28;20015;-64
2023/05/05 10:22:46;;;;;;;;;;;;;;;;;;5069650;28;19928;-65
2023/05/05 10:25:12;;;;;;;;;;;;;;;;;;5067595;28;19924;-63
2023/05/05 10:27:39;;;;;;;;;;;;;;;;;;5071844;28;19921;-63
2023/05/05 10:30:05;;;;;;;;;;;;;;;;;;5072772;28;20380;-64
2023/05/05 10:32:31;;;;;;;;;;;;;;;;;;5071859;28;19968;-63
2023/05/05 10:34:57;;;;;;;;;;;;;;;;;;5072578;28;20148;-63
2023/05/05 10:37:23;;;;;;;;;;;;;;;;;;5070574;28;20023;-63
2023/05/05 10:39:49;;;;;;;;;;;;;;;;;;5072483;28;19925;-63
2023/05/05 10:42:15;;;;;;;;;;;;;;;;;;5071666;28;19935;-63
2023/05/05 10:44:41;;;;;;;;;;;;;;;;;;5072009;28;19958;-64
2023/05/05 10:47:07;;;;;;;;;;;;;;;;;;5072331;28;19920;-63
2023/05/05 10:49:32;;;;;;;;;;;;;;;;;;5054181;28;19924;-64
2023/05/05 10:51:58;;;;;;;;;;;;;;;;;;5074487;28;20028;-64
2023/05/05 10:54:24;;;;;;;;;;;;;;;;;;5073603;28;19920;-63
2023/05/05 10:56:50;;;;;;;;;;;;;;;;;;5060511;28;19925;-64
2023/05/05 10:59:16;;;;;;;;;;;;;;;;;;5034241;28;19931;-62
2023/05/05 11:01:42;;;;;;;;;;;;;;;;;;5051891;28;19935;-64
2023/05/05 11:04:10;;;;;;;;;;;;;;;;;;5070231;28;21299;-63
2023/05/05 11:06:35;;;;;;;;;;;;;;;;;;5072096;28;20023;-63
2023/05/05 11:09:01;;;;;;;;;;;;;;;;;;5088086;28;20350;-64
2023/05/05 11:11:27;;;;;;;;;;;;;;;;;;5070497;28;19921;-63
2023/05/05 11:13:53;;;;;;;;;;;;;;;;;;5053695;28;20451;-62
2023/05/05 11:16:19;;;;;;;;;;;;;;;;;;5037337;28;19921;-63
2023/05/05 11:18:45;;;;;;;;;;;;;;;;;;5057828;28;19968;-64
2023/05/05 11:21:14;;;;;;;;;;;;;;;;;;5051831;28;19929;-64
2023/05/05 11:23:40;;;;;;;;;;;;;;;;;;5051762;28;19924;-64
2023/05/05 11:26:06;;;;;;;;;;;;;;;;;;5051234;28;19929;-64
2023/05/05 11:28:32;;;;;;;;;;;;;;;;;;5052308;28;20397;-64
2023/05/05 11:30:57;;;;;;;;;;;;;;;;;;5071289;28;20018;-64
2023/05/05 11:33:33;;;;;;;;;;;;;;;;;;5071360;28;19928;-63
2023/05/05 11:35:59;;;;;;;;;;;;;;;;;;5071565;28;20023;-64
2023/05/05 11:38:25;;;;;;;;;;;;;;;;;;5053155;28;19963;-64
2023/05/05 11:40:51;;;;;;;;;;;;;;;;;;5071009;28;19935;-64
2023/05/05 11:43:17;;;;;;;;;;;;;;;;;;5077739;28;19931;-64
2023/05/05 11:45:43;;;;;;;;;;;;;;;;;;5053293;28;19920;-63
2023/05/05 11:48:09;;;;;;;;;;;;;;;;;;5070785;28;20571;-63
2023/05/05 11:50:35;;;;;;;;;;;;;;;;;;5071326;28;19935;-64
2023/05/05 11:53:01;;;;;;;;;;;;;;;;;;5071239;28;20282;-63
2023/05/05 11:55:26;;;;;;;;;;;;;;;;;;5071271;28;19932;-64
2023/05/05 11:57:52;;;;;;;;;;;;;;;;;;5053150;28;19929;-63
2023/05/05 12:00:18;;;;;;;;;;;;;;;;;;5061410;28;20435;-63
2023/05/05 12:02:44;;;;;;;;;;;;;;;;;;5045338;28;20397;-64
2023/05/05 12:05:10;;;;;;;;;;;;;;;;;;5061039;28;19921;-63
2023/05/05 12:07:36;;;;;;;;;;;;;;;;;;5064627;28;19971;-63
2023/05/05 12:10:02;;;;;;;;;;;;;;;;;;5050877;28;19932;-64
2023/05/05 12:12:28;;;;;;;;;;;;;;;;;;5061853;28;20694;-65
2023/05/05 12:14:54;;;;;;;;;;;;;;;;;;5068427;28;20370;-64
2023/05/05 12:17:20;;;;;;;;;;;;;;;;;;5067444;28;19947;-64
2023/05/05 12:19:46;;;;;;;;;;;;;;;;;;5071934;28;20255;-64
2023/05/05 12:22:12;;;;;;;;;;;;;;;;;;5059337;28;19989;-65
2023/05/05 12:24:37;;;;;;;;;;;;;;;;;;5037355;28;20332;-65
2023/05/05 12:27:04;;;;;;;;;;;;;;;;;;5053977;28;19921;-65
2023/05/05 12:29:30;;;;;;;;;;;;;;;;;;5064688;28;20266;-66
2023/05/05 12:31:56;;;;;;;;;;;;;;;;;;5050722;28;19927;-64
2023/05/05 12:34:22;;;;;;;;;;;;;;;;;;5066451;28;19920;-65
2023/05/05 12:36:48;;;;;;;;;;;;;;;;;;5071426;28;19925;-65
2023/05/05 12:39:14;;;;;;;;;;;;;;;;;;5065889;28;20925;-64
2023/05/05 12:41:40;;;;;;;;;;;;;;;;;;5067243;28;19952;-65
2023/05/05 12:44:06;;;;;;;;;;;;;;;;;;5047397;28;20606;-65
2023/05/05 12:46:32;;;;;;;;;;;;;;;;;;5048546;28;19924;-66
2023/05/05 12:48:58;;;;;;;;;;;;;;;;;;5066591;28;19931;-65
2023/05/05 12:51:24;;;;;;;;;;;;;;;;;;5062307;28;20527;-65
2023/05/05 12:53:50;;;;;;;;;;;;;;;;;;5068373;28;19931;-65
2023/05/05 12:56:16;;;;;;;;;;;;;;;;;;5070347;28;19920;-65
2023/05/05 12:58:41;;;;;;;;;;;;;;;;;;5072732;28;20514;-65
2023/05/05 13:01:07;;;;;;;;;;;;;;;;;;5049507;28;20016;-65
2023/05/05 13:03:33;;;;;;;;;;;;;;;;;;5073576;28;19929;-65
2023/05/05 13:06:00;;;;;;;;;;;;;;;;;;5068169;28;19924;-65
2023/05/05 13:08:25;;;;;;;;;;;;;;;;;;5066247;28;19939;-65
2023/05/05 13:10:51;;;;;;;;;;;;;;;;;;5080874;28;19920;-64
2023/05/05 13:13:17;;;;;;;;;;;;;;;;;;5074030;28;19935;-64
2023/05/05 13:15:43;;;;;;;;;;;;;;;;;;5068580;28;19927;-64
2023/05/05 13:18:09;;;;;;;;;;;;;;;;;;5069273;28;19935;-64
2023/05/05 13:20:35;;;;;;;;;;;;;;;;;;5068201;28;19931;-64
2023/05/05 13:23:01;;;;;;;;;;;;;;;;;;5072515;28;19931;-64
2023/05/05 13:25:27;;;;;;;;;;;;;;;;;;5068559;28;20340;-64
2023/05/05 13:27:53;;;;;;;;;;;;;;;;;;5068850;28;19920;-63
2023/05/05 13:30:19;;;;;;;;;;;;;;;;;;5067826;28;19951;-64
2023/05/05 13:32:45;;;;;;;;;;;;;;;;;;5068946;28;20289;-64
2023/05/05 13:35:11;;;;;;;;;;;;;;;;;;5067402;28;19920;-65
2023/05/05 13:37:37;;;;;;;;;;;;;;;;;;5067432;28;19928;-64
2023/05/05 13:40:03;;;;;;;;;;;;;;;;;;5066928;28;20329;-64
2023/05/05 13:42:28;;;;;;;;;;;;;;;;;;5069210;28;19925;-64
2023/05/05 13:44:54;;;;;;;;;;;;;;;;;;5038791;28;19973;-65
2023/05/05 13:47:20;;;;;;;;;;;;;;;;;;5066433;28;20426;-64
2023/05/05 13:49:47;;;;;;;;;;;;;;;;;;5063972;28;20019;-64
2023/05/05 13:52:13;;;;;;;;;;;;;;;;;;5069400;28;19920;-64
2023/05/05 13:54:39;;;;;;;;;;;;;;;;;;5047399;28;19920;-64
2023/05/05 13:57:06;;;;;;;;;;;;;;;;;;5060071;28;19939;-64
2023/05/05 13:59:32;;;;;;;;;;;;;;;;;;5043652;28;20005;-64
2023/05/05 14:01:59;;;;;;;;;;;;;;;;;;5062806;28;19925;-63
2023/05/05 14:04:25;;;;;;;;;;;;;;;;;;5064084;28;19978;-64
2023/05/05 14:06:52;;;;;;;;;;;;;;;;;;5051410;28;20616;-65
2023/05/05 14:09:18;;;;;;;;;;;;;;;;;;5061093;28;19974;-65
2023/05/05 14:11:44;;;;;;;;;;;;;;;;;;5058663;28;20334;-65
2023/05/05 14:14:10;;;;;;;;;;;;;;;;;;5069846;28;19929;-65
2023/05/05 14:16:36;;;;;;;;;;;;;;;;;;5063586;28;19924;-64
2023/05/05 14:19:02;;;;;;;;;;;;;;;;;;5068780;28;20404;-64
2023/05/05 14:21:28;;;;;;;;;;;;;;;;;;5054308;28;19928;-64
2023/05/05 14:23:54;;;;;;;;;;;;;;;;;;5057860;28;20303;-65
2023/05/05 14:26:20;;;;;;;;;;;;;;;;;;5079453;28;19966;-65
2023/05/05 14:28:46;;;;;;;;;;;;;;;;;;5077134;28;19920;-65
2023/05/05 14:31:12;;;;;;;;;;;;;;;;;;5052374;28;19920;-65
2023/05/05 14:33:38;;;;;;;;;;;;;;;;;;5068569;28;19935;-65
2023/05/05 14:36:03;;;;;;;;;;;;;;;;;;5072290;28;19920;-65
2023/05/05 14:38:29;;;;;;;;;;;;;;;;;;5053376;28;19920;-64
2023/05/05 14:40:55;;;;;;;;;;;;;;;;;;5071670;28;20022;-65
2023/05/05 14:43:21;;;;;;;;;;;;;;;;;;5070152;28;19924;-65
2023/05/05 14:45:47;;;;;;;;;;;;;;;;;;5071042;28;20472;-64
2023/05/05 14:48:13;;;;;;;;;;;;;;;;;;5066020;28;19935;-64
2023/05/05 14:50:41;;;;;;;;;;;;;;;;;;5070860;28;20007;-64
2023/05/05 14:53:06;;;;;;;;;;;;;;;;;;5072245;28;20294;-66
2023/05/05 14:55:32;;;;;;;;;;;;;;;;;;5057686;28;19920;-65
2023/05/05 14:57:58;;;;;;;;;;;;;;;;;;5073099;28;19973;-66
2023/05/05 15:00:25;;;;;;;;;;;;;;;;;;5074464;28;19931;-65
2023/05/05 15:02:51;;;;;;;;;;;;;;;;;;5071899;28;20039;-65
2023/05/05 15:05:17;;;;;;;;;;;;;;;;;;5062182;28;20016;-65
2023/05/05 15:07:43;;;;;;;;;;;;;;;;;;5066574;28;20368;-65
2023/05/05 15:10:09;;;;;;;;;;;;;;;;;;5071451;28;19926;-65
2023/05/05 15:12:35;;;;;;;;;;;;;;;;;;5071946;28;19967;-65
2023/05/05 15:15:01;;;;;;;;;;;;;;;;;;5034753;28;19924;-65
2023/05/05 15:17:27;;;;;;;;;;;;;;;;;;5070223;28;19920;-65
2023/05/05 15:19:53;;;;;;;;;;;;;;;;;;5051942;28;19932;-64
2023/05/05 15:22:19;;;;;;;;;;;;;;;;;;5033619;28;19925;-65
2023/05/05 15:24:45;;;;;;;;;;;;;;;;;;5056659;28;20347;-64
2023/05/05 15:27:11;;;;;;;;;;;;;;;;;;5049982;28;20361;-65
2023/05/05 15:29:36;;;;;;;;;;;;;;;;;;5051854;28;19921;-64
2023/05/05 15:32:02;;;;;;;;;;;;;;;;;;5066086;28;19947;-65
2023/05/05 15:34:28;;;;;;;;;;;;;;;;;;5071667;28;19924;-65
2023/05/05 15:36:54;;;;;;;;;;;;;;;;;;5088909;28;19920;-65
2023/05/05 15:39:20;;;;;;;;;;;;;;;;;;5056798;28;19935;-65
2023/05/05 15:41:46;;;;;;;;;;;;;;;;;;5086049;28;19980;-65
2023/05/05 15:44:12;;;;;;;;;;;;;;;;;;5071765;28;19920;-64
2023/05/05 15:46:39;;;;;;;;;;;;;;;;;;5071383;28;20366;-65
2023/05/05 15:49:05;;;;;;;;;;;;;;;;;;5071512;28;19924;-64
2023/05/05 15:51:31;;;;;;;;;;;;;;;;;;5071185;28;19924;-64
2023/05/05 15:53:58;;;;;;;;;;;;;;;;;;5070821;28;19943;-65
2023/05/05 15:56:26;;;;;;;;;;;;;;;;;;5091628;28;20401;-65
2023/05/05 15:58:52;;;;;;;;;;;;;;;;;;5085620;28;20271;-65
2023/05/05 16:01:17;;;;;;;;;;;;;;;;;;5071397;28;19936;-65
2023/05/05 16:03:43;;;;;;;;;;;;;;;;;;5071446;28;19925;-65
2023/05/05 16:06:10;;;;;;;;;;;;;;;;;;5093568;22;19976;-62
2023/05/05 16:08:36;;;;;;;;;;;;;;;;;;5091205;28;19920;-62
2023/05/05 16:11:02;;;;;;;;;;;;;;;;;;5091875;28;20019;-62
2023/05/05 16:13:28;;;;;;;;;;;;;;;;;;5095552;28;20373;-62
2023/05/05 16:15:54;;;;;;;;;;;;;;;;;;5092135;28;19924;-62
2023/05/05 16:18:20;;;;;;;;;;;;;;;;;;5094808;28;19943;-62
2023/05/05 16:20:46;;;;;;;;;;;;;;;;;;5094812;28;20365;-62
2023/05/05 16:23:12;;;;;;;;;;;;;;;;;;5095099;28;19924;-62
2023/05/05 16:25:38;;;;;;;;;;;;;;;;;;5088753;28;20294;-61
2023/05/05 16:28:03;;;;;;;;;;;;;;;;;;5075251;28;19963;-62
2023/05/05 16:30:29;;;;;;;;;;;;;;;;;;5075027;28;19920;-62
2023/05/05 16:32:55;;;;;;;;;;;;;;;;;;5080073;28;19924;-63
2023/05/05 16:35:21;;;;;;;;;;;;;;;;;;5081594;28;19930;-63
2023/05/05 16:37:47;;;;;;;;;;;;;;;;;;5075094;28;19921;-63